Airfield :
LOGIN :

Register | Disclaimer

   EN    FR    IT 

 










Legend :    VFR   Marginal VFR   IFR   Intensive IFR   Very Intensive IFR
Visi :
Ceiling :
>= 8 km
>= 3000ft
5 to 8 km
1000 to 3000 ft
1500m to 5 km
500 to 1000 ft
800 to 1500m
200 to 500 ft
< 800m
< 200 ft
Symbols :   Thunderstorms  Fog  Heavy snow  Heavy precipitations  Wind > 20 kt
SIGMETs :     Misc.  Thunderstorms  Icing  Turbulence  Mountain Waves  Volcanic Ashes







- Airport Elevation : 299 ft
- IATA code : EDM
- Download approach charts


LFRI - La Roche Sur Yon - Les Ajoncs

CURRENT METAR :
  • 240230Z AUTO 03007KT 4600 BR NSC 05/05 Q1027

EXPIRED METARs :
  • 240200Z AUTO 02007KT 5000 BR NSC 06/05 Q1027
  • 240130Z AUTO 02007KT 5000 BR NSC 06/05 Q1027
  • 240100Z AUTO 04005KT 6000 NSC 06/05 Q1026
  • 240030Z AUTO 04006KT 7000 NSC 06/05 Q1026
  • 240000Z AUTO 05005KT 8000 NSC 07/05 Q1026

TAF TAF LFRI
Valid from the 23 at 18:00 until the 24 at 18:00 UTC


231700Z 2318/2418 05006KT CAVOK
PROB40
TEMPO 2403/2408 3000 BR
PROB30
TEMPO 2404/2407 0800 BCFG
BECMG 2409/2411 02010KT
BECMG 2412/2414 BKN025
No reported NOTAMs for that airfield.



MET'MAP, your aeronautical weather chart ! - Copyright ORBIFLY December 2007 - Disclaimer

ORBIFLY MET'MAP TEAM :

Programming & Development : Alexandra Zaïnal
Concept & Development : Baudouin d'Aumeries
Co-Development & Prog : Marc-Olivier Méhu
Technical & hardware support : Manuel Goepfert

Contact : metmap@orbifly.com




SOURCES & CREDITS :

   NOAA